Fernwood, Pennsylvania
Current Conditions -  °F | °C
As of 4:54 AM on Friday 24 Oct 2014 (Local Time) from KPHL Reporting Station
Overcast Overcast  
Wind Chill: 57°   Ceiling: 3200
Heat Index: 57°   Visibility: 10mi
Dew Point: 44°   Wind: 10mph
Humidity: 62%   Direction: 330°NNW
Pressure: 29.85"   Gusts: NA
Location:  39.9372°N, 75.2636°W
Report Text: KPHL 240854Z 33009KT 10SM BKN032 OVC045 14/07 A2985 RMK AO2 SLP107 T01390067 53008 PNO $
Loading
Personal Weather Stations






























Interactive Weather Map
Tropical Storm Tracking
New forecast layout! Learn more

10-Day Weather Forecast

Advertisements
Track Severe Weather on mobile